KDLS/DLS METAR and TAF weather

Enter ICAO airport designator
Station Type Date Time Source
KDLS METAR 2021/09/24 04:53 UTC NOAA

KDLS 240453Z AUTO 29003KT 10SM CLR 17/09 A3013 RMK AO2 SLP202 T01720094


Station Type Date Time Source
KDLS Decoded METAR 2021/09/24 04:53 UTC NOAA

THE DALLES MUNICIPAL AIRPORT , OR, United States (KDLS) 45-37N 121-10W 71M
Sep 24, 2021 - 12:53 AM EDT / 2021.09.24 0453 UTC
Wind: from the WNW (290 degrees) at 3 MPH (3 KT):0
Visibility: 10 mile(s):0
Sky conditions: clear
Temperature: 63.0 F (17.2 C)
Dew Point: 48.9 F (9.4 C)
Relative Humidity: 60%
Pressure (altimeter): 30.13 in. Hg (1020 hPa)
ob: KDLS 240453Z AUTO 29003KT 10SM CLR 17/09 A3013 RMK AO2 SLP202 T01720094
cycle: 5

Station Type Date Time Source
KDLS TAF 2021/09/23 18:22 UTC NOAA

TAF KDLS 231720Z 2318/2418 33005KT P6SM SCT250
FM240700 VRB05KT P6SM FEW250
FM241200 VRB03KT P6SM SKC

Example: see airport list